MET5691 - Baltimore to Boston

Embraer ERJ-170LR
N920AU
1 hr 15 mins
321 nm
Scheduled - Daily

Bid/PiRep Status

Bid was submitted on Jan 02 2017.

PiRep # 74602: Approved by Sean Doyle on January 4th, 2017 23:10 UTC

Departure

Departing from
Baltimore (BWI)
Departure gate
Scheduled Departure
GMT 1310
Local 0910
METAR KBWI 241054Z 36004KT 10SM FEW045 BKN070 BKN120 14/13 A2972 RMK AO2 SLP063 T01390128
TAF KBWI 240904Z 2409/2512 09005KT P6SM BKN015 OVC035 FM241400 09006KT P6SM BKN015 BKN035 FM241700 09007KT P6SM BKN025 FM250100 11010G17KT P6SM BKN010 OVC025 FM250300 10012G19KT P6SM -RA BKN010 OVC025 FM250400 10012KT P6SM -RA BKN008 OVC025

Route Map

Planning Resources

PALEO3,HTO,WOONS1
OOD J42 RBV J222 JFK
SWANN3 DQO DAVYS J42 LAURN J222 JFK J225 NEWES INNDY2 CCC TELLE KENEE WOBUR EMMEL FIX 17
DCT SWANN DCT OOD J42 RBV J222 JFK KRANN3
ODD DAVYS BRAND RBV LAURN SANTT PACER HFD PUT
Route:
OFP Layout:
Units:
Detailed Navlog:
ETOPS Planning:
Plan Stepclimbs:
Runway Analysis:
Include NOTAMS:
FIR NOTAMS:
Flight Maps:

Return Flights

MET764
Airbus A321-232
2100 GMT
MET5690
Embraer ERJ-170LR
0122 GMT
MET5692
Embraer ERJ-170LR
1455 GMT
MET5764
Embraer ERJ-170LR
1135 GMT

Popularity

Hub Current Bids PiReps this month Total PiReps
KMCI 0 0 6
KLAX 0 0 2
KBOS 0 0 1